Annecy-Haute-Savoie-Mont Blanc Airport

Airport
ICAO code: 
LFLP
IATA Code: 
NCY
Summary
ICAO Region: 
EUR
Territory: 
Location: 
, Rhone-Alpes
Serving: 
Annecy
Elevation: 
1521 ft
Coordinates: 
Aerial View: 
45° 55' 45.239" N, 6° 5' 55.55" E
Metar
Observation
LFLP 041300Z AUTO 15006KT 9999 BKN026 OVC035 06/05 Q1006 TEMPO 3000 RA BR BKN014 OVC030
Station
ANNECY/MEYTHET
Date/Time
2021-12-04 13:00:00
Wind direction
150°
Wind speed
06 kts
Lowest cloud amount
broken clouds
Temperature
6°C
Dew point
5°C
Humidity
93%
QNH
1006 hPa
Weather condition
n/a

Runways

Designator Length Width Surface Rops
4/22 1630 30 ASP Yes/Yes
Airport map: 
Aerial View: 

SKYbrary Partners:

Safety knowledge contributed by: